createdAt,value
2022-08-28T00:00:02.489Z,65.69
2022-08-28T00:02:29.079Z,65.47
2022-08-28T00:04:55.713Z,65.78
2022-08-28T00:07:22.385Z,66.53
2022-08-28T00:09:48.935Z,67.05
2022-08-28T00:12:15.516Z,67.55
2022-08-28T00:14:42.181Z,67.92
2022-08-28T00:17:08.710Z,68.07
2022-08-28T00:19:38.737Z,68.05
2022-08-28T00:22:06.769Z,68.19
2022-08-28T00:24:34.289Z,68.36
2022-08-28T00:27:19.373Z,69.06
2022-08-28T00:29:46.022Z,68.86
2022-08-28T00:32:13.798Z,68.96
2022-08-28T00:34:40.464Z,69.40
2022-08-28T00:37:07.546Z,69.57
2022-08-28T00:39:34.546Z,68.82
2022-08-28T00:42:01.098Z,68.65
2022-08-28T00:44:29.046Z,68.87
2022-08-28T00:46:57.803Z,69.10
2022-08-28T00:49:28.477Z,69.41
2022-08-28T00:52:05.815Z,69.77
2022-08-28T00:54:34.940Z,70.20
2022-08-28T00:57:05.128Z,70.15
2022-08-28T00:59:31.671Z,70.03
2022-08-28T01:01:59.490Z,70.04
2022-08-28T01:04:28.486Z,69.75
2022-08-28T01:06:57.220Z,69.80
2022-08-28T01:09:27.297Z,70.21
2022-08-28T01:11:57.913Z,69.73
2022-08-28T01:14:26.662Z,70.96
2022-08-28T01:16:57.191Z,69.37
2022-08-28T01:19:35.147Z,69.12
2022-08-28T01:22:21.862Z,69.61
2022-08-28T01:24:50.831Z,69.60
2022-08-28T01:27:17.454Z,69.06
2022-08-28T01:29:44.805Z,68.77
2022-08-28T01:32:28.583Z,68.58
2022-08-28T01:34:55.127Z,67.31
2022-08-28T01:37:21.687Z,67.05
2022-08-28T01:39:48.258Z,67.36
2022-08-28T01:42:14.917Z,66.71
2022-08-28T01:44:41.499Z,67.73
2022-08-28T01:47:08.128Z,67.57
2022-08-28T01:49:34.646Z,67.31
2022-08-28T01:52:01.723Z,66.69
2022-08-28T01:54:29.992Z,67.77
2022-08-28T01:56:56.694Z,67.36
2022-08-28T01:59:23.298Z,67.52
2022-08-28T02:01:49.977Z,66.60
2022-08-28T02:04:16.796Z,66.54
2022-08-28T02:06:43.665Z,66.46
2022-08-28T02:09:14.464Z,67.17
2022-08-28T02:11:46.537Z,67.21
2022-08-28T02:14:14.300Z,67.13
2022-08-28T02:16:40.858Z,67.03
2022-08-28T02:19:07.414Z,67.27
2022-08-28T02:21:35.494Z,66.63
2022-08-28T02:24:02.117Z,66.09
2022-08-28T02:26:30.401Z,66.66
2022-08-28T02:28:57.037Z,67.55
2022-08-28T02:31:25.962Z,67.85
2022-08-28T02:33:52.593Z,69.12
2022-08-28T02:36:20.847Z,69.20
2022-08-28T02:38:47.616Z,70.19
2022-08-28T02:41:14.440Z,68.82
2022-08-28T02:43:41.350Z,68.44
2022-08-28T02:46:08.421Z,71.59
2022-08-28T02:48:37.142Z,71.02
2022-08-28T02:51:08.311Z,71.96
2022-08-28T02:53:35.850Z,72.13
2022-08-28T02:56:03.096Z,71.21
2022-08-28T02:58:32.268Z,69.89
2022-08-28T03:01:01.805Z,68.59
2022-08-28T03:03:31.183Z,69.62
2022-08-28T03:06:01.843Z,70.74
2022-08-28T03:08:28.770Z,68.86
2022-08-28T03:10:55.711Z,70.45
2022-08-28T03:13:27.098Z,71.54
2022-08-28T03:15:55.855Z,70.83
2022-08-28T03:18:24.480Z,71.82
2022-08-28T03:20:52.618Z,72.01
2022-08-28T03:23:28.662Z,71.29
2022-08-28T03:26:00.153Z,71.41
2022-08-28T03:28:29.813Z,71.74
2022-08-28T03:30:57.863Z,72.12
2022-08-28T03:33:25.357Z,72.40
2022-08-28T03:35:52.135Z,71.65
2022-08-28T03:38:19.166Z,72.14
2022-08-28T03:40:46.926Z,73.08
2022-08-28T03:43:16.842Z,70.50
2022-08-28T03:46:00.632Z,71.87
2022-08-28T03:48:31.231Z,72.02
2022-08-28T03:50:59.795Z,71.72
2022-08-28T03:53:29.407Z,72.27
2022-08-28T03:55:57.053Z,74.28
2022-08-28T03:58:24.621Z,73.15
2022-08-28T04:00:51.386Z,72.26
2022-08-28T04:03:18.641Z,71.98
2022-08-28T04:05:46.770Z,72.24
2022-08-28T04:08:16.603Z,71.54
2022-08-28T04:10:44.628Z,71.71
2022-08-28T04:13:13.061Z,71.45
2022-08-28T04:15:41.515Z,70.44
2022-08-28T04:18:09.420Z,70.60
2022-08-28T04:20:36.838Z,71.62
2022-08-28T04:23:04.121Z,71.75
2022-08-28T04:25:31.387Z,71.15
2022-08-28T04:27:58.182Z,71.73
2022-08-28T04:30:24.843Z,72.73
2022-08-28T04:32:51.388Z,72.73
2022-08-28T04:35:18.394Z,72.89
2022-08-28T04:37:44.897Z,73.85
2022-08-28T04:40:12.946Z,74.43
2022-08-28T04:42:40.148Z,73.49
2022-08-28T04:45:07.802Z,74.04
2022-08-28T04:47:39.187Z,73.50
2022-08-28T04:50:07.680Z,74.06
2022-08-28T04:52:34.468Z,74.12
2022-08-28T04:55:01.667Z,73.88
2022-08-28T04:57:28.308Z,74.04
2022-08-28T04:59:54.940Z,74.22
2022-08-28T05:02:21.521Z,75.16
2022-08-28T05:04:48.329Z,74.17
2022-08-28T05:07:14.874Z,74.42
2022-08-28T05:09:41.370Z,76.18
2022-08-28T05:12:07.910Z,75.01
2022-08-28T05:14:35.519Z,74.44
2022-08-28T05:17:02.043Z,73.82
2022-08-28T05:19:28.654Z,73.83
2022-08-28T05:21:55.285Z,73.68
2022-08-28T05:24:22.473Z,73.43
2022-08-28T05:26:49.128Z,74.25
2022-08-28T05:29:16.946Z,73.41
2022-08-28T05:31:44.114Z,73.40
2022-08-28T05:34:12.750Z,73.60
2022-08-28T05:36:39.993Z,71.88
2022-08-28T05:39:10.153Z,71.56
2022-08-28T05:41:39.110Z,70.77
2022-08-28T05:44:08.287Z,70.23
2022-08-28T05:46:37.542Z,70.24
2022-08-28T05:49:09.138Z,69.86
2022-08-28T05:51:37.118Z,68.70
2022-08-28T05:54:03.981Z,67.64
2022-08-28T05:56:35.014Z,67.92
2022-08-28T05:59:03.197Z,67.10
2022-08-28T06:01:32.737Z,67.03
2022-08-28T06:04:02.075Z,67.45
2022-08-28T06:06:31.111Z,66.03
2022-08-28T06:08:59.686Z,65.25
2022-08-28T06:11:30.704Z,65.37
2022-08-28T06:14:01.791Z,65.86
2022-08-28T06:16:34.961Z,64.90
2022-08-28T06:19:01.637Z,64.32
2022-08-28T06:21:29.065Z,65.95
2022-08-28T06:23:56.159Z,65.58
2022-08-28T06:26:23.207Z,64.71
2022-08-28T06:28:49.731Z,64.69
2022-08-28T06:31:24.676Z,63.55
2022-08-28T06:33:55.164Z,62.58
2022-08-28T06:36:22.536Z,62.02
2022-08-28T06:38:49.522Z,63.35
2022-08-28T06:41:16.374Z,62.07
2022-08-28T06:43:43.001Z,62.23
2022-08-28T06:46:09.794Z,62.92
2022-08-28T06:48:36.533Z,63.30
2022-08-28T06:51:06.808Z,61.13
2022-08-28T06:53:33.582Z,62.47
2022-08-28T06:56:07.260Z,62.21
2022-08-28T06:58:35.978Z,61.30
2022-08-28T07:01:16.731Z,60.48
2022-08-28T07:03:45.035Z,60.70
2022-08-28T07:06:14.017Z,59.36
2022-08-28T07:08:42.488Z,59.66
2022-08-28T07:11:29.489Z,59.95
2022-08-28T07:13:57.031Z,61.05
2022-08-28T07:16:29.462Z,58.78
2022-08-28T07:18:57.140Z,54.88
2022-08-28T07:21:24.135Z,57.94
2022-08-28T07:23:50.662Z,57.42
2022-08-28T07:26:20.597Z,56.44
2022-08-28T07:28:47.291Z,56.31
2022-08-28T07:31:16.578Z,57.57
2022-08-28T07:33:44.819Z,57.16
2022-08-28T07:36:28.816Z,57.33
2022-08-28T07:38:57.955Z,53.42
2022-08-28T07:41:27.923Z,52.82
2022-08-28T07:44:12.992Z,53.84
2022-08-28T07:46:40.356Z,54.11
2022-08-28T07:49:08.571Z,53.54
2022-08-28T07:51:36.006Z,54.31
2022-08-28T07:54:04.047Z,54.97
2022-08-28T07:56:31.467Z,55.32
2022-08-28T07:58:59.318Z,53.11
2022-08-28T08:01:27.629Z,54.57
2022-08-28T08:04:01.308Z,51.42
2022-08-28T08:06:34.494Z,54.55
2022-08-28T08:09:02.311Z,53.69
2022-08-28T08:11:32.215Z,50.77
2022-08-28T08:14:05.676Z,48.59
2022-08-28T08:16:41.258Z,48.07
2022-08-28T08:19:10.171Z,47.16
2022-08-28T08:21:37.603Z,46.80
2022-08-28T08:24:04.488Z,47.63
2022-08-28T08:26:31.269Z,48.56
2022-08-28T08:29:04.963Z,49.03
2022-08-28T08:31:33.280Z,49.06
2022-08-28T08:34:04.722Z,50.64
2022-08-28T08:36:34.235Z,51.10
2022-08-28T08:39:01.860Z,51.54
2022-08-28T08:41:43.581Z,51.30
2022-08-28T08:44:23.460Z,51.03
2022-08-28T08:47:27.051Z,49.73
2022-08-28T08:50:27.452Z,50.16
2022-08-28T08:53:21.591Z,49.96
2022-08-28T08:55:50.826Z,48.57
2022-08-28T08:58:35.242Z,48.62
2022-08-28T09:01:04.712Z,48.63
2022-08-28T09:03:49.525Z,48.55
2022-08-28T09:06:29.891Z,48.63
2022-08-28T09:09:00.468Z,47.98
2022-08-28T09:11:41.715Z,48.53
2022-08-28T09:14:33.058Z,48.02
2022-08-28T09:17:00.811Z,47.03
2022-08-28T09:19:27.403Z,47.24
2022-08-28T09:21:54.507Z,45.06
2022-08-28T09:24:22.656Z,44.92
2022-08-28T09:26:56.535Z,44.60
2022-08-28T09:29:47.079Z,43.13
2022-08-28T09:32:16.565Z,42.67
2022-08-28T09:35:06.346Z,44.28
2022-08-28T09:37:34.695Z,44.23
2022-08-28T09:40:20.310Z,42.89
2022-08-28T09:43:28.200Z,41.66
2022-08-28T09:45:58.274Z,40.29
2022-08-28T09:48:36.474Z,41.55
2022-08-28T09:51:07.836Z,41.24
2022-08-28T09:54:02.023Z,41.94
2022-08-28T09:56:32.738Z,41.37
2022-08-28T09:59:06.845Z,42.27
2022-08-28T10:01:52.566Z,40.04
2022-08-28T10:04:19.483Z,40.44
2022-08-28T10:06:54.937Z,40.66
2022-08-28T10:09:45.126Z,39.13
2022-08-28T10:12:26.544Z,40.58
2022-08-28T10:15:13.190Z,41.46
2022-08-28T10:17:49.863Z,39.15
2022-08-28T10:20:38.539Z,38.69
2022-08-28T10:23:24.778Z,38.89
2022-08-28T10:26:19.478Z,38.64
2022-08-28T10:29:16.255Z,37.75
2022-08-28T10:32:20.873Z,37.03
2022-08-28T10:34:50.341Z,36.48
2022-08-28T10:37:56.755Z,36.08
2022-08-28T10:40:28.555Z,37.47
2022-08-28T10:43:04.248Z,37.19
2022-08-28T10:45:33.593Z,37.67
2022-08-28T10:48:27.301Z,36.44
2022-08-28T10:51:00.795Z,37.10
2022-08-28T10:53:38.087Z,34.78
2022-08-28T10:56:13.116Z,35.60
2022-08-28T10:58:40.924Z,35.21
2022-08-28T11:01:32.900Z,33.66
2022-08-28T11:04:03.451Z,34.66
2022-08-28T11:06:39.031Z,35.01
2022-08-28T11:09:25.795Z,35.51
2022-08-28T11:12:10.145Z,35.76
2022-08-28T11:14:47.762Z,35.42
2022-08-28T11:17:30.476Z,35.61
2022-08-28T11:20:00.147Z,34.58
2022-08-28T11:22:51.100Z,33.99
2022-08-28T11:25:32.503Z,34.84
2022-08-28T11:28:23.675Z,34.13
2022-08-28T11:31:05.597Z,33.74
2022-08-28T11:33:52.634Z,31.69
2022-08-28T11:36:21.879Z,32.83
2022-08-28T11:38:51.356Z,32.89
2022-08-28T11:41:30.384Z,32.32
2022-08-28T11:43:59.632Z,32.65
2022-08-28T11:46:32.730Z,33.52
2022-08-28T11:49:02.275Z,31.75
2022-08-28T11:52:01.553Z,32.72
2022-08-28T11:54:47.173Z,32.16
2022-08-28T11:57:15.031Z,30.62
2022-08-28T12:00:18.791Z,30.86
2022-08-28T12:02:49.623Z,31.09
2022-08-28T12:05:16.154Z,30.40
2022-08-28T12:07:45.125Z,30.15
2022-08-28T12:10:20.721Z,29.66
2022-08-28T12:12:47.202Z,29.81
2022-08-28T12:15:28.731Z,29.58
2022-08-28T12:18:06.129Z,29.62
2022-08-28T12:20:40.946Z,29.94
2022-08-28T12:23:35.059Z,30.14
2022-08-28T12:26:06.664Z,30.31
2022-08-28T12:28:46.675Z,30.13
2022-08-28T12:31:56.987Z,30.63
2022-08-28T12:34:51.556Z,30.52
2022-08-28T12:37:52.203Z,29.66
2022-08-28T12:40:31.843Z,30.32
2022-08-28T12:43:04.216Z,30.56
2022-08-28T12:45:48.743Z,30.04
2022-08-28T12:48:22.982Z,30.10
2022-08-28T12:50:58.869Z,30.60
2022-08-28T12:53:27.584Z,30.22
2022-08-28T12:55:55.643Z,28.43
2022-08-28T12:58:39.391Z,28.97
2022-08-28T13:01:10.251Z,28.61
2022-08-28T13:03:50.123Z,28.97
2022-08-28T13:06:25.098Z,28.32
2022-08-28T13:08:59.718Z,28.13
2022-08-28T13:11:30.693Z,29.44
2022-08-28T13:13:57.243Z,29.41
2022-08-28T13:16:43.655Z,29.38
2022-08-28T13:19:10.708Z,30.08
2022-08-28T13:22:00.536Z,29.89
2022-08-28T13:24:35.815Z,29.39
2022-08-28T13:27:08.811Z,29.24
2022-08-28T13:29:36.985Z,29.63
2022-08-28T13:32:17.506Z,29.49
2022-08-28T13:35:12.870Z,30.43
2022-08-28T13:37:53.311Z,30.77
2022-08-28T13:40:55.788Z,31.01
2022-08-28T13:43:12.876Z,30.58
2022-08-28T13:45:42.944Z,31.65
2022-08-28T13:48:13.255Z,29.71
2022-08-28T13:50:47.191Z,29.55
2022-08-28T13:53:14.941Z,28.22
2022-08-28T13:55:41.558Z,28.53
2022-08-28T13:58:08.146Z,27.01
2022-08-28T14:00:39.837Z,27.75
2022-08-28T14:03:25.130Z,27.40
2022-08-28T14:05:51.655Z,27.50
2022-08-28T14:08:18.205Z,28.74
2022-08-28T14:10:44.734Z,29.29
2022-08-28T14:13:11.267Z,30.50
2022-08-28T14:15:38.382Z,29.76
2022-08-28T14:18:05.498Z,29.36
2022-08-28T14:20:32.786Z,28.27
2022-08-28T14:22:59.374Z,27.98
2022-08-28T14:25:26.014Z,28.46
2022-08-28T14:27:52.577Z,29.20
2022-08-28T14:30:19.889Z,28.94
2022-08-28T14:32:46.415Z,29.67
2022-08-28T14:35:13.109Z,29.16
2022-08-28T14:37:39.718Z,28.47
2022-08-28T14:40:07.161Z,29.28
2022-08-28T14:42:33.727Z,29.05
2022-08-28T14:45:00.310Z,28.81
2022-08-28T14:47:27.122Z,28.04
2022-08-28T14:49:53.716Z,28.34
2022-08-28T14:52:20.299Z,28.57
2022-08-28T14:54:46.780Z,28.79
2022-08-28T14:57:13.665Z,28.62
2022-08-28T14:59:40.265Z,28.05
2022-08-28T15:02:07.824Z,28.19
2022-08-28T15:04:35.363Z,28.45
2022-08-28T15:07:06.396Z,28.31
2022-08-28T15:09:36.837Z,28.70
2022-08-28T15:12:03.662Z,29.12
2022-08-28T15:14:30.425Z,28.26
2022-08-28T15:16:57.089Z,27.89
2022-08-28T15:19:24.092Z,28.31
2022-08-28T15:21:54.063Z,28.30
2022-08-28T15:24:24.293Z,28.37
2022-08-28T15:26:50.928Z,26.82
2022-08-28T15:29:18.277Z,28.30
2022-08-28T15:31:48.944Z,28.33
2022-08-28T15:34:21.338Z,28.33
2022-08-28T15:36:54.863Z,27.96
2022-08-28T15:39:42.755Z,29.00
2022-08-28T15:42:10.331Z,28.09
2022-08-28T15:44:37.417Z,27.43
2022-08-28T15:47:05.047Z,27.21
2022-08-28T15:49:36.156Z,28.65
2022-08-28T15:52:10.805Z,29.86
2022-08-28T15:54:37.546Z,30.76
2022-08-28T15:57:04.231Z,31.46
2022-08-28T15:59:39.977Z,32.76
2022-08-28T16:02:17.805Z,32.68
2022-08-28T16:04:44.398Z,33.80
2022-08-28T16:07:11.159Z,33.84
2022-08-28T16:09:37.811Z,35.26
2022-08-28T16:12:04.502Z,35.43
2022-08-28T16:14:32.764Z,36.71
2022-08-28T16:16:59.395Z,37.76
2022-08-28T16:19:32.555Z,38.63
2022-08-28T16:21:59.076Z,39.38
2022-08-28T16:24:25.652Z,39.43
2022-08-28T16:26:52.161Z,39.27
2022-08-28T16:29:18.879Z,39.80
2022-08-28T16:31:47.990Z,39.22
2022-08-28T16:34:15.589Z,38.87
2022-08-28T16:36:48.148Z,39.31
2022-08-28T16:39:14.866Z,41.02
2022-08-28T16:41:42.171Z,40.79
2022-08-28T16:44:09.075Z,41.31
2022-08-28T16:46:35.725Z,40.68
2022-08-28T16:49:02.584Z,41.29
2022-08-28T16:51:29.762Z,41.88
2022-08-28T16:53:56.882Z,43.73
2022-08-28T16:56:26.723Z,42.76
2022-08-28T16:58:53.974Z,43.38
2022-08-28T17:01:24.071Z,42.52
2022-08-28T17:03:54.717Z,43.62
2022-08-28T17:06:27.116Z,43.89
2022-08-28T17:08:56.895Z,44.75
2022-08-28T17:11:25.905Z,44.50
2022-08-28T17:13:53.210Z,44.53
2022-08-28T17:16:20.804Z,45.02
2022-08-28T17:18:51.987Z,45.18
2022-08-28T17:21:38.476Z,45.75
2022-08-28T17:24:05.407Z,45.33
2022-08-28T17:26:31.943Z,45.65
2022-08-28T17:28:58.615Z,46.25
2022-08-28T17:31:25.177Z,47.15
2022-08-28T17:33:51.806Z,47.63
2022-08-28T17:36:25.675Z,48.04
2022-08-28T17:39:05.606Z,46.73
2022-08-28T17:41:33.432Z,47.28
2022-08-28T17:44:01.316Z,47.48
2022-08-28T17:46:28.246Z,47.56
2022-08-28T17:48:56.097Z,47.70
2022-08-28T17:51:40.418Z,48.26
2022-08-28T17:54:16.797Z,48.03
2022-08-28T17:56:43.962Z,48.30
2022-08-28T17:59:11.825Z,48.11
2022-08-28T18:01:38.929Z,49.16
2022-08-28T18:04:05.895Z,48.94
2022-08-28T18:06:33.512Z,49.54
2022-08-28T18:09:00.455Z,49.77
2022-08-28T18:11:27.442Z,50.13
2022-08-28T18:13:54.169Z,49.35
2022-08-28T18:16:20.941Z,49.77
2022-08-28T18:18:47.666Z,49.54
2022-08-28T18:21:14.811Z,49.48
2022-08-28T18:23:41.408Z,49.66
2022-08-28T18:26:08.613Z,50.51
2022-08-28T18:28:35.646Z,50.41
2022-08-28T18:31:03.174Z,49.61
2022-08-28T18:33:29.735Z,52.26
2022-08-28T18:35:56.873Z,50.23
2022-08-28T18:38:28.063Z,49.86
2022-08-28T18:40:55.902Z,50.07
2022-08-28T18:43:22.560Z,50.03
2022-08-28T18:45:49.635Z,51.43
2022-08-28T18:48:16.881Z,50.83
2022-08-28T18:50:46.416Z,51.54
2022-08-28T18:53:18.089Z,50.13
2022-08-28T18:55:45.813Z,50.28
2022-08-28T18:58:15.447Z,50.62
2022-08-28T19:00:42.712Z,50.25
2022-08-28T19:03:09.957Z,50.12
2022-08-28T19:05:37.870Z,51.08
2022-08-28T19:08:04.661Z,51.05
2022-08-28T19:10:34.738Z,51.38
2022-08-28T19:13:02.462Z,51.63
2022-08-28T19:15:29.507Z,51.74
2022-08-28T19:17:56.141Z,51.25
2022-08-28T19:20:22.923Z,51.13
2022-08-28T19:22:49.848Z,52.51
2022-08-28T19:25:27.893Z,51.84
2022-08-28T19:28:01.546Z,52.58
2022-08-28T19:30:32.909Z,53.26
2022-08-28T19:33:02.161Z,54.17
2022-08-28T19:35:28.857Z,53.95
2022-08-28T19:37:55.430Z,54.45
2022-08-28T19:40:22.490Z,53.97
2022-08-28T19:42:52.119Z,53.37
2022-08-28T19:45:19.621Z,53.92
2022-08-28T19:47:47.211Z,54.56
2022-08-28T19:50:15.726Z,53.09
2022-08-28T19:52:43.398Z,53.69
2022-08-28T19:55:17.393Z,54.04
2022-08-28T19:57:43.959Z,54.12
2022-08-28T20:00:11.248Z,54.82
2022-08-28T20:02:37.815Z,53.74
2022-08-28T20:05:05.507Z,54.42
2022-08-28T20:07:32.014Z,54.02
2022-08-28T20:09:58.559Z,54.68
2022-08-28T20:12:25.159Z,54.77
2022-08-28T20:14:52.040Z,55.30
2022-08-28T20:17:18.831Z,54.58
2022-08-28T20:19:48.782Z,54.68
2022-08-28T20:22:15.607Z,55.42
2022-08-28T20:24:42.325Z,57.09
2022-08-28T20:27:09.190Z,55.89
2022-08-28T20:29:36.055Z,55.97
2022-08-28T20:32:03.242Z,55.76
2022-08-28T20:34:29.838Z,56.44
2022-08-28T20:36:56.394Z,56.66
2022-08-28T20:39:23.346Z,57.40
2022-08-28T20:41:49.981Z,58.63
2022-08-28T20:44:19.386Z,57.43
2022-08-28T20:46:51.081Z,58.50
2022-08-28T20:49:21.737Z,58.64
2022-08-28T20:51:54.549Z,59.17
2022-08-28T20:54:24.468Z,59.65
2022-08-28T20:56:52.146Z,59.24
2022-08-28T20:59:20.096Z,58.72
2022-08-28T21:01:46.750Z,59.68
2022-08-28T21:04:13.384Z,59.37
2022-08-28T21:06:39.925Z,60.27
2022-08-28T21:09:06.475Z,61.42
2022-08-28T21:11:33.634Z,61.10
2022-08-28T21:14:00.235Z,61.75
2022-08-28T21:16:26.835Z,62.00
2022-08-28T21:19:14.869Z,61.46
2022-08-28T21:21:41.174Z,62.38
2022-08-28T21:24:10.699Z,63.52
2022-08-28T21:26:39.370Z,65.78
2022-08-28T21:29:09.792Z,63.94
2022-08-28T21:31:36.978Z,66.34
2022-08-28T21:34:03.520Z,67.46
2022-08-28T21:36:30.134Z,66.61
2022-08-28T21:38:57.910Z,68.06
2022-08-28T21:41:24.507Z,68.31
2022-08-28T21:43:51.052Z,67.79
2022-08-28T21:46:17.654Z,67.64
2022-08-28T21:48:48.427Z,68.17
2022-08-28T21:51:16.401Z,67.12
2022-08-28T21:53:43.269Z,68.15
2022-08-28T21:56:10.651Z,69.62
2022-08-28T21:58:38.641Z,70.79
2022-08-28T22:01:05.528Z,71.07
2022-08-28T22:03:32.325Z,70.27
2022-08-28T22:05:58.868Z,70.72
2022-08-28T22:08:28.685Z,71.28
2022-08-28T22:10:56.454Z,71.98
2022-08-28T22:13:22.993Z,72.03
2022-08-28T22:15:49.543Z,71.29
2022-08-28T22:18:16.316Z,71.49
2022-08-28T22:21:02.827Z,72.47
2022-08-28T22:23:33.636Z,73.00
2022-08-28T22:26:03.359Z,72.40
2022-08-28T22:28:31.362Z,73.08
2022-08-28T22:30:58.594Z,72.14
2022-08-28T22:33:26.254Z,72.80
2022-08-28T22:35:53.235Z,72.32
2022-08-28T22:38:21.386Z,72.20
2022-08-28T22:40:48.474Z,73.04
2022-08-28T22:43:16.422Z,72.04
2022-08-28T22:45:46.364Z,71.98
2022-08-28T22:48:15.086Z,71.70
2022-08-28T22:50:43.067Z,71.49
2022-08-28T22:53:10.422Z,73.08
2022-08-28T22:55:41.377Z,72.49
2022-08-28T22:58:10.905Z,71.85
2022-08-28T23:00:40.110Z,73.26
2022-08-28T23:03:06.864Z,74.65
2022-08-28T23:05:33.983Z,73.85
2022-08-28T23:08:00.514Z,72.94
2022-08-28T23:10:48.372Z,73.67
2022-08-28T23:13:15.184Z,74.58
2022-08-28T23:15:43.381Z,74.35
2022-08-28T23:18:11.117Z,74.91
2022-08-28T23:20:39.398Z,74.96
2022-08-28T23:23:06.789Z,75.62
2022-08-28T23:25:34.195Z,74.54
2022-08-28T23:28:05.853Z,73.73
2022-08-28T23:30:33.406Z,73.52
2022-08-28T23:33:00.012Z,73.86
2022-08-28T23:35:26.700Z,73.27
2022-08-28T23:37:53.312Z,73.28
2022-08-28T23:40:22.564Z,73.10
2022-08-28T23:42:49.330Z,73.84
2022-08-28T23:45:17.224Z,73.41
2022-08-28T23:47:44.387Z,73.14
2022-08-28T23:50:20.481Z,72.37
2022-08-28T23:52:47.975Z,72.08
2022-08-28T23:55:16.759Z,72.94
2022-08-28T23:57:44.109Z,74.14
